createdAt,value
2022-08-01T00:00:08.894Z,2.60
2022-08-01T00:02:36.536Z,2.80
2022-08-01T00:05:03.520Z,2.60
2022-08-01T00:07:30.181Z,3.00
2022-08-01T00:09:56.852Z,2.63
2022-08-01T00:12:23.556Z,2.67
2022-08-01T00:14:50.406Z,2.20
2022-08-01T00:17:17.095Z,2.60
2022-08-01T00:19:43.767Z,2.55
2022-08-01T00:22:10.479Z,2.28
2022-08-01T00:24:37.229Z,2.38
2022-08-01T00:27:04.127Z,2.50
2022-08-01T00:30:12.216Z,2.40
2022-08-01T00:32:17.910Z,2.63
2022-08-01T00:34:44.578Z,2.92
2022-08-01T00:37:15.559Z,2.35
2022-08-01T00:39:43.182Z,2.63
2022-08-01T00:42:11.622Z,2.75
2022-08-01T00:44:39.361Z,2.38
2022-08-01T00:47:07.068Z,3.10
2022-08-01T00:49:33.959Z,2.53
2022-08-01T00:52:01.170Z,2.53
2022-08-01T00:54:28.916Z,2.35
2022-08-01T00:56:55.985Z,2.38
2022-08-01T00:59:23.886Z,2.40
2022-08-01T01:01:53.566Z,2.70
2022-08-01T01:04:28.535Z,2.40
2022-08-01T01:07:20.046Z,2.53
2022-08-01T01:10:07.687Z,2.38
2022-08-01T01:12:41.797Z,2.63
2022-08-01T01:15:17.720Z,2.65
2022-08-01T01:18:01.547Z,2.72
2022-08-01T01:20:33.034Z,2.45
2022-08-01T01:23:16.610Z,2.40
2022-08-01T01:25:58.983Z,2.70
2022-08-01T01:28:29.044Z,2.60
2022-08-01T01:30:58.488Z,2.58
2022-08-01T01:33:29.245Z,2.38
2022-08-01T01:36:01.824Z,2.70
2022-08-01T01:38:33.628Z,2.70
2022-08-01T01:41:03.194Z,2.33
2022-08-01T01:43:33.676Z,2.67
2022-08-01T01:46:03.532Z,2.78
2022-08-01T01:48:30.562Z,2.60
2022-08-01T01:50:58.462Z,2.67
2022-08-01T01:53:27.876Z,2.55
2022-08-01T01:55:57.557Z,2.60
2022-08-01T01:58:25.302Z,2.53
2022-08-01T02:00:53.813Z,3.08
2022-08-01T02:03:22.695Z,2.50
2022-08-01T02:05:50.951Z,2.63
2022-08-01T02:08:18.197Z,2.50
2022-08-01T02:11:05.356Z,2.30
2022-08-01T02:13:34.546Z,3.03
2022-08-01T02:16:02.964Z,2.33
2022-08-01T02:18:29.794Z,2.40
2022-08-01T02:20:58.695Z,2.88
2022-08-01T02:58:40.415Z,3.00
2022-08-01T03:01:09.481Z,3.00
2022-08-01T03:03:39.563Z,2.47
2022-08-01T03:06:07.020Z,2.63
2022-08-01T03:08:35.603Z,2.55
2022-08-01T03:11:04.351Z,2.70
2022-08-01T03:13:32.943Z,3.45
2022-08-01T03:16:01.236Z,2.90
2022-08-01T03:18:29.586Z,2.70
2022-08-01T03:20:57.830Z,2.80
2022-08-01T03:23:37.870Z,2.83
2022-08-01T03:26:06.956Z,2.60
2022-08-01T03:28:34.275Z,2.50
2022-08-01T03:31:02.889Z,3.25
2022-08-01T03:33:30.415Z,2.88
2022-08-01T03:36:00.486Z,2.70
2022-08-01T03:38:29.615Z,2.92
2022-08-01T03:41:12.602Z,2.60
2022-08-01T03:43:42.748Z,3.20
2022-08-01T03:46:18.452Z,3.03
2022-08-01T03:48:49.535Z,2.80
2022-08-01T03:51:18.743Z,2.67
2022-08-01T03:53:48.332Z,2.80
2022-08-01T03:56:20.551Z,2.78
2022-08-01T03:58:50.024Z,2.95
2022-08-01T04:01:18.223Z,2.58
2022-08-01T04:03:45.669Z,2.90
2022-08-01T04:06:14.664Z,2.70
2022-08-01T04:08:42.087Z,2.78
2022-08-01T04:11:10.289Z,2.60
2022-08-01T04:13:38.472Z,2.58
2022-08-01T04:16:05.939Z,2.80
2022-08-01T04:18:33.101Z,3.03
2022-08-01T04:20:59.838Z,2.47
2022-08-01T04:23:28.122Z,2.70
2022-08-01T04:25:56.708Z,2.80
2022-08-01T04:28:24.826Z,2.97
2022-08-01T04:30:58.403Z,3.22
2022-08-01T04:33:30.920Z,3.22
2022-08-01T04:36:02.667Z,2.60
2022-08-01T04:38:34.331Z,2.78
2022-08-01T04:41:09.319Z,2.63
2022-08-01T04:43:37.667Z,2.95
2022-08-01T04:46:05.047Z,2.55
2022-08-01T04:48:34.504Z,2.80
2022-08-01T04:51:01.859Z,3.10
2022-08-01T04:53:28.804Z,2.65
2022-08-01T04:55:56.482Z,2.53
2022-08-01T04:58:23.307Z,2.47
2022-08-01T05:00:50.167Z,2.75
2022-08-01T05:03:16.907Z,2.60
2022-08-01T05:05:43.768Z,2.88
2022-08-01T05:08:10.958Z,2.55
2022-08-01T05:10:37.678Z,2.70
2022-08-01T05:13:04.430Z,2.65
2022-08-01T05:15:31.832Z,2.60
2022-08-01T05:17:58.623Z,2.75
2022-08-01T05:20:25.351Z,2.55
2022-08-01T05:22:52.050Z,2.90
2022-08-01T05:25:20.402Z,3.75
2022-08-01T05:27:49.204Z,3.00
2022-08-01T05:30:18.742Z,2.80
2022-08-01T05:32:45.463Z,2.65
2022-08-01T05:35:12.463Z,2.70
2022-08-01T05:37:39.292Z,2.92
2022-08-01T05:40:06.784Z,2.60
2022-08-01T05:42:33.668Z,2.70
2022-08-01T05:45:00.382Z,2.90
2022-08-01T05:47:27.109Z,3.13
2022-08-01T05:49:53.953Z,2.92
2022-08-01T05:52:20.605Z,2.97
2022-08-01T05:54:47.251Z,2.85
2022-08-01T05:57:15.240Z,2.60
2022-08-01T05:59:42.142Z,3.13
2022-08-01T06:02:09.400Z,2.83
2022-08-01T06:04:36.626Z,2.55
2022-08-01T06:07:03.305Z,2.80
2022-08-01T06:09:31.587Z,2.70
2022-08-01T06:11:58.579Z,3.20
2022-08-01T06:14:25.314Z,2.95
2022-08-01T06:16:52.009Z,2.70
2022-08-01T06:19:18.936Z,2.85
2022-08-01T06:21:45.670Z,2.33
2022-08-01T06:24:12.479Z,2.50
2022-08-01T06:26:39.230Z,2.90
2022-08-01T06:29:05.962Z,2.47
2022-08-01T06:31:33.927Z,2.40
2022-08-01T06:34:01.286Z,2.53
2022-08-01T06:36:28.249Z,2.78
2022-08-01T06:38:54.947Z,3.03
2022-08-01T06:41:21.728Z,2.65
2022-08-01T06:43:48.519Z,2.80
2022-08-01T06:46:15.313Z,2.38
2022-08-01T06:48:43.485Z,3.10
2022-08-01T06:51:10.247Z,2.40
2022-08-01T06:53:38.498Z,2.50
2022-08-01T06:56:06.362Z,2.50
2022-08-01T06:58:33.416Z,2.92
2022-08-01T07:01:01.458Z,2.42
2022-08-01T07:03:53.879Z,2.70
2022-08-01T07:06:15.929Z,3.00
2022-08-01T07:08:43.636Z,2.65
2022-08-01T07:11:10.295Z,2.50
2022-08-01T07:13:45.495Z,3.00
2022-08-01T07:16:14.069Z,2.63
2022-08-01T07:18:41.074Z,3.13
2022-08-01T07:21:16.443Z,2.95
2022-08-01T07:23:54.973Z,2.83
2022-08-01T07:26:22.713Z,3.15
2022-08-01T07:28:49.431Z,3.15
2022-08-01T07:31:16.327Z,2.90
2022-08-01T07:33:48.799Z,2.75
2022-08-01T07:36:16.829Z,3.40
2022-08-01T07:38:44.072Z,3.03
2022-08-01T07:41:10.924Z,2.97
2022-08-01T07:43:37.755Z,2.83
2022-08-01T07:46:05.143Z,3.20
2022-08-01T07:48:32.554Z,3.25
2022-08-01T07:50:59.295Z,3.20
2022-08-01T07:53:26.720Z,3.35
2022-08-01T07:55:53.494Z,3.35
2022-08-01T07:58:20.514Z,3.30
2022-08-01T08:00:47.330Z,3.05
2022-08-01T08:03:13.995Z,3.10
2022-08-01T08:05:57.730Z,2.88
2022-08-01T08:08:26.156Z,2.75
2022-08-01T08:10:52.814Z,2.80
2022-08-01T08:13:19.535Z,2.90
2022-08-01T08:15:48.222Z,3.35
2022-08-01T08:18:15.588Z,2.78
2022-08-01T08:20:42.288Z,3.22
2022-08-01T08:23:41.846Z,3.08
2022-08-01T08:26:10.451Z,3.03
2022-08-01T08:28:37.515Z,3.28
2022-08-01T08:31:04.198Z,3.15
2022-08-01T08:33:30.955Z,2.78
2022-08-01T08:35:57.823Z,3.08
2022-08-01T08:38:29.971Z,2.75
2022-08-01T08:40:57.689Z,2.50
2022-08-01T08:43:26.158Z,2.65
2022-08-01T08:45:59.837Z,2.53
2022-08-01T08:48:28.271Z,3.13
2022-08-01T08:50:56.140Z,2.92
2022-08-01T08:53:23.311Z,3.03
2022-08-01T08:55:55.825Z,2.40
2022-08-01T08:58:30.524Z,2.53
2022-08-01T09:01:00.080Z,2.50
2022-08-01T09:03:26.918Z,2.60
2022-08-01T09:05:53.914Z,2.28
2022-08-01T09:08:20.597Z,2.42
2022-08-01T09:10:47.351Z,2.22
2022-08-01T09:13:15.816Z,2.60
2022-08-01T09:15:59.724Z,2.65
2022-08-01T09:18:35.045Z,2.45
2022-08-01T09:21:16.859Z,2.30
2022-08-01T09:23:53.835Z,2.30
2022-08-01T09:26:37.055Z,2.72
2022-08-01T09:31:42.703Z,2.63
2022-08-01T09:34:15.497Z,2.33
2022-08-01T09:36:55.300Z,2.65
2022-08-01T09:39:33.179Z,2.40
2022-08-01T09:42:02.032Z,2.30
2022-08-01T09:44:54.998Z,2.60
2022-08-01T09:47:23.363Z,2.38
2022-08-01T09:49:59.258Z,2.40
2022-08-01T09:52:28.892Z,2.33
2022-08-01T09:54:57.364Z,2.13
2022-08-01T09:57:24.446Z,2.38
2022-08-01T10:00:01.461Z,2.13
2022-08-01T10:02:31.401Z,2.17
2022-08-01T10:05:03.210Z,2.20
2022-08-01T10:07:42.884Z,2.30
2022-08-01T10:10:15.737Z,1.90
2022-08-01T10:12:44.303Z,1.98
2022-08-01T10:15:16.462Z,2.15
2022-08-01T10:17:57.370Z,1.88
2022-08-01T10:20:32.288Z,2.50
2022-08-01T10:23:05.841Z,1.95
2022-08-01T10:25:42.190Z,2.00
2022-08-01T10:28:23.823Z,2.08
2022-08-01T10:30:53.118Z,2.08
2022-08-01T10:33:50.822Z,2.40
2022-08-01T10:36:10.600Z,2.15
2022-08-01T10:38:37.658Z,2.20
2022-08-01T10:41:06.321Z,2.20
2022-08-01T10:43:35.431Z,2.00
2022-08-01T10:46:04.675Z,2.20
2022-08-01T10:48:53.219Z,2.35
2022-08-01T10:51:21.447Z,2.40
2022-08-01T10:53:54.164Z,2.50
2022-08-01T10:56:26.558Z,2.40
2022-08-01T10:59:06.528Z,2.60
2022-08-01T11:01:38.830Z,2.28
2022-08-01T11:04:16.974Z,2.50
2022-08-01T11:06:53.358Z,2.50
2022-08-01T11:09:36.507Z,2.10
2022-08-01T11:12:24.780Z,2.42
2022-08-01T11:15:02.942Z,2.08
2022-08-01T11:17:37.312Z,1.95
2022-08-01T11:20:15.786Z,2.30
2022-08-01T11:23:03.371Z,2.28
2022-08-01T11:26:06.817Z,2.10
2022-08-01T11:28:35.794Z,1.80
2022-08-01T11:31:11.657Z,2.00
2022-08-01T11:33:45.973Z,1.75
2022-08-01T11:36:15.723Z,1.90
2022-08-01T11:38:46.888Z,1.88
2022-08-01T11:41:38.090Z,1.77
2022-08-01T11:47:00.655Z,1.90
2022-08-01T11:52:06.775Z,1.80
2022-08-01T11:54:55.723Z,1.80
2022-08-01T11:57:34.155Z,2.30
2022-08-01T12:00:20.494Z,1.80
2022-08-01T12:02:56.886Z,2.20
2022-08-01T12:05:27.364Z,1.85
2022-08-01T12:07:56.199Z,1.73
2022-08-01T12:10:29.327Z,1.60
2022-08-01T12:13:00.812Z,1.83
2022-08-01T12:15:35.547Z,1.80
2022-08-01T12:18:07.206Z,1.52
2022-08-01T12:20:36.841Z,1.80
2022-08-01T12:23:09.766Z,1.70
2022-08-01T12:25:37.409Z,1.60
2022-08-01T12:28:09.274Z,1.45
2022-08-01T12:30:38.692Z,1.50
2022-08-01T12:33:10.145Z,1.40
2022-08-01T12:35:39.245Z,1.58
2022-08-01T12:38:08.773Z,1.55
2022-08-01T12:40:45.104Z,1.48
2022-08-01T12:43:28.094Z,1.73
2022-08-01T12:45:58.597Z,1.33
2022-08-01T12:48:26.434Z,1.52
2022-08-01T12:50:54.402Z,1.30
2022-08-01T12:53:22.985Z,1.27
2022-08-01T12:55:58.235Z,1.65
2022-08-01T12:58:31.468Z,1.40
2022-08-01T13:01:12.130Z,1.38
2022-08-01T13:03:40.123Z,1.30
2022-08-01T13:06:16.345Z,1.40
2022-08-01T13:08:44.204Z,1.70
2022-08-01T13:11:17.289Z,1.55
2022-08-01T13:13:49.317Z,1.30
2022-08-01T13:16:30.854Z,1.50
2022-08-01T13:19:06.555Z,1.45
2022-08-01T13:21:52.213Z,1.20
2022-08-01T13:24:24.743Z,1.83
2022-08-01T13:27:04.465Z,1.70
2022-08-01T13:29:32.504Z,1.60
2022-08-01T13:32:01.167Z,1.60
2022-08-01T13:34:34.828Z,1.58
2022-08-01T13:37:02.517Z,1.35
2022-08-01T13:39:41.615Z,1.60
2022-08-01T13:42:10.381Z,1.60
2022-08-01T13:44:37.261Z,1.75
2022-08-01T13:47:11.648Z,1.70
2022-08-01T13:49:42.841Z,1.60
2022-08-01T13:52:10.010Z,1.55
2022-08-01T13:54:37.314Z,1.60
2022-08-01T13:57:04.292Z,1.73
2022-08-01T13:59:31.071Z,1.48
2022-08-01T14:01:57.839Z,1.10
2022-08-01T14:04:24.701Z,1.40
2022-08-01T14:06:51.481Z,1.45
2022-08-01T14:09:24.100Z,1.70
2022-08-01T14:11:51.404Z,1.42
2022-08-01T14:14:18.100Z,1.17
2022-08-01T14:16:45.839Z,1.13
2022-08-01T14:19:13.054Z,1.25
2022-08-01T14:21:39.829Z,1.17
2022-08-01T14:24:07.567Z,1.20
2022-08-01T14:26:34.346Z,0.90
2022-08-01T14:29:03.588Z,0.93
2022-08-01T14:31:34.128Z,1.00
2022-08-01T14:34:01.300Z,1.10
2022-08-01T14:36:31.183Z,0.80
2022-08-01T14:39:00.327Z,0.93
2022-08-01T14:41:28.640Z,1.00
2022-08-01T14:43:58.224Z,0.85
2022-08-01T14:46:24.979Z,0.80
2022-08-01T14:48:51.823Z,1.08
2022-08-01T14:51:18.614Z,1.00
2022-08-01T14:53:46.778Z,0.75
2022-08-01T14:56:15.834Z,0.90
2022-08-01T14:58:42.614Z,0.82
2022-08-01T15:01:09.359Z,1.30
2022-08-01T15:03:36.135Z,1.00
2022-08-01T15:06:03.262Z,1.08
2022-08-01T15:08:30.960Z,0.88
2022-08-01T15:10:57.725Z,1.10
2022-08-01T15:13:24.474Z,1.00
2022-08-01T15:15:51.179Z,1.20
2022-08-01T15:18:17.830Z,1.13
2022-08-01T15:20:44.809Z,0.95
2022-08-01T15:23:11.575Z,0.95
2022-08-01T15:25:41.270Z,1.08
2022-08-01T15:28:12.605Z,1.08
2022-08-01T15:30:39.604Z,1.17
2022-08-01T15:33:06.383Z,1.13
2022-08-01T15:35:33.679Z,1.52
2022-08-01T15:38:00.724Z,1.30
2022-08-01T15:40:29.125Z,1.20
2022-08-01T15:42:56.018Z,1.35
2022-08-01T15:45:46.480Z,1.08
2022-08-01T15:48:09.984Z,1.17
2022-08-01T15:50:38.976Z,1.20
2022-08-01T15:53:06.761Z,1.02
2022-08-01T15:55:38.152Z,1.20
2022-08-01T16:00:32.788Z,1.40
2022-08-01T16:03:02.725Z,1.35
2022-08-01T16:05:29.432Z,1.30
2022-08-01T16:08:01.498Z,1.35
2022-08-01T16:10:30.158Z,1.05
2022-08-01T16:13:04.492Z,1.55
2022-08-01T16:15:36.624Z,1.40
2022-08-01T16:18:05.404Z,1.45
2022-08-01T16:20:32.369Z,1.40
2022-08-01T16:22:59.074Z,1.38
2022-08-01T16:25:25.848Z,1.67
2022-08-01T16:27:52.612Z,1.48
2022-08-01T16:30:19.307Z,1.17
2022-08-01T16:32:47.981Z,1.33
2022-08-01T16:35:19.602Z,1.33
2022-08-01T16:37:47.136Z,2.00
2022-08-01T16:40:14.864Z,2.70
2022-08-01T16:42:41.573Z,1.98
2022-08-01T16:45:13.914Z,1.75
2022-08-01T16:47:41.343Z,1.75
2022-08-01T16:50:09.389Z,1.52
2022-08-01T16:52:42.062Z,1.52
2022-08-01T16:55:10.220Z,1.60
2022-08-01T16:57:38.342Z,1.70
2022-08-01T17:00:20.864Z,1.48
2022-08-01T17:02:48.415Z,1.48
2022-08-01T17:05:15.260Z,1.50
2022-08-01T17:07:42.135Z,1.63
2022-08-01T17:10:09.894Z,1.50
2022-08-01T17:12:36.559Z,1.65
2022-08-01T17:15:03.987Z,1.45
2022-08-01T17:17:30.687Z,1.40
2022-08-01T17:19:57.363Z,1.80
2022-08-01T17:22:24.041Z,1.40
2022-08-01T17:24:53.703Z,1.48
2022-08-01T17:27:20.739Z,1.50
2022-08-01T17:29:47.551Z,1.50
2022-08-01T17:32:14.651Z,1.40
2022-08-01T17:34:42.547Z,1.50
2022-08-01T17:37:10.076Z,1.70
2022-08-01T17:39:39.385Z,1.50
2022-08-01T17:42:08.285Z,1.50
2022-08-01T17:44:35.159Z,1.60
2022-08-01T17:47:02.151Z,1.85
2022-08-01T17:49:53.324Z,1.52
2022-08-01T17:52:15.742Z,1.58
2022-08-01T17:54:42.536Z,1.92
2022-08-01T17:57:10.322Z,1.95
2022-08-01T17:59:37.190Z,1.95
2022-08-01T18:02:04.443Z,1.90
2022-08-01T18:04:33.864Z,1.83
2022-08-01T18:07:01.689Z,2.30
2022-08-01T18:09:32.671Z,1.88
2022-08-01T18:12:03.011Z,1.70
2022-08-01T18:14:40.275Z,1.70
2022-08-01T18:17:11.327Z,1.77
2022-08-01T18:19:39.588Z,1.80
2022-08-01T18:22:15.624Z,2.03
2022-08-01T18:24:53.690Z,1.63
2022-08-01T18:27:20.456Z,1.90
2022-08-01T18:29:48.741Z,1.70
2022-08-01T18:32:16.039Z,1.70
2022-08-01T18:34:42.742Z,1.85
2022-08-01T18:37:11.355Z,1.85
2022-08-01T18:39:40.025Z,1.90
2022-08-01T18:42:07.291Z,1.65
2022-08-01T18:44:34.715Z,1.80
2022-08-01T18:47:01.416Z,1.80
2022-08-01T18:49:28.204Z,1.77
2022-08-01T18:51:55.918Z,1.52
2022-08-01T18:54:24.401Z,2.45
2022-08-01T18:56:51.685Z,1.52
2022-08-01T18:59:18.895Z,1.70
2022-08-01T19:01:45.668Z,1.92
2022-08-01T19:04:13.293Z,1.70
2022-08-01T19:06:40.521Z,1.60
2022-08-01T19:09:07.881Z,1.65
2022-08-01T19:11:34.877Z,1.65
2022-08-01T19:14:02.933Z,1.50
2022-08-01T19:16:29.831Z,2.00
2022-08-01T19:18:56.562Z,2.20
2022-08-01T19:21:23.426Z,1.88
2022-08-01T19:24:09.165Z,1.83
2022-08-01T19:26:37.573Z,2.60
2022-08-01T19:29:15.485Z,2.40
2022-08-01T19:31:47.011Z,2.95
2022-08-01T19:34:17.081Z,2.80
2022-08-01T19:36:48.507Z,3.30
2022-08-01T19:39:16.813Z,4.57
2022-08-01T19:41:47.692Z,4.65
2022-08-01T19:44:16.575Z,4.05
2022-08-01T19:46:44.335Z,3.80
2022-08-01T19:49:18.818Z,4.95
2022-08-01T19:51:50.727Z,5.20
2022-08-01T19:54:19.549Z,4.35
2022-08-01T19:56:48.105Z,4.47
2022-08-01T19:59:20.568Z,4.85
2022-08-01T20:01:48.906Z,5.07
2022-08-01T20:04:19.437Z,4.88
2022-08-01T20:06:47.240Z,5.28
2022-08-01T20:09:14.607Z,5.18
2022-08-01T20:11:46.495Z,5.68
2022-08-01T20:14:21.697Z,6.15
2022-08-01T20:16:49.671Z,4.95
2022-08-01T20:19:17.907Z,5.93
2022-08-01T20:22:03.420Z,5.63
2022-08-01T20:24:51.947Z,5.75
2022-08-01T20:27:20.442Z,5.32
2022-08-01T20:29:50.868Z,6.72
2022-08-01T20:32:19.794Z,5.60
2022-08-01T20:34:46.613Z,5.68
2022-08-01T20:37:14.114Z,6.30
2022-08-01T20:39:43.881Z,5.68
2022-08-01T20:42:11.770Z,5.50
2022-08-01T20:44:39.317Z,5.30
2022-08-01T20:47:06.075Z,4.97
2022-08-01T20:49:35.118Z,5.38
2022-08-01T20:52:02.042Z,4.72
2022-08-01T20:54:39.856Z,4.15
2022-08-01T20:57:21.964Z,4.25
2022-08-01T21:00:00.738Z,4.38
2022-08-01T21:02:51.238Z,3.97
2022-08-01T21:05:29.395Z,3.85
2022-08-01T21:08:11.339Z,4.22
2022-08-01T21:10:40.947Z,4.32
2022-08-01T21:13:16.651Z,5.00
2022-08-01T21:16:23.631Z,4.85
2022-08-01T21:19:19.226Z,5.25
2022-08-01T21:22:12.721Z,5.82
2022-08-01T21:24:59.911Z,6.78
2022-08-01T21:27:33.810Z,6.47
2022-08-01T21:30:04.063Z,5.57
2022-08-01T21:32:34.100Z,5.25
2022-08-01T21:35:01.861Z,5.00
2022-08-01T21:37:29.675Z,5.40
2022-08-01T21:39:59.489Z,4.45
2022-08-01T21:42:28.538Z,4.00
2022-08-01T21:45:00.024Z,3.70
2022-08-01T21:47:29.518Z,3.67
2022-08-01T21:50:02.578Z,3.08
2022-08-01T21:53:11.564Z,3.60
2022-08-01T21:56:16.566Z,3.33
2022-08-01T21:59:15.110Z,3.35
2022-08-01T22:02:08.645Z,3.25
2022-08-01T22:04:47.631Z,3.20
2022-08-01T22:07:18.359Z,3.00
2022-08-01T22:09:49.386Z,2.90
2022-08-01T22:12:18.821Z,2.55
2022-08-01T22:14:48.945Z,2.75
2022-08-01T22:17:22.683Z,2.83
2022-08-01T22:19:55.015Z,2.72
2022-08-01T22:25:10.722Z,2.30
2022-08-01T22:28:03.278Z,2.33
2022-08-01T22:30:29.182Z,2.40
2022-08-01T22:33:15.262Z,2.28
2022-08-01T22:35:45.951Z,2.22
2022-08-01T22:38:13.558Z,2.40
2022-08-01T22:40:48.295Z,2.63
2022-08-01T22:43:50.135Z,2.47
2022-08-01T22:47:05.111Z,2.90
2022-08-01T22:49:42.093Z,2.75
2022-08-01T22:52:33.206Z,2.53
2022-08-01T22:55:09.284Z,2.90
2022-08-01T22:57:50.261Z,2.72
2022-08-01T23:00:17.761Z,2.67
2022-08-01T23:03:08.814Z,3.03
2022-08-01T23:05:40.336Z,2.72
2022-08-01T23:08:10.614Z,2.75
2022-08-01T23:10:43.592Z,2.90
2022-08-01T23:13:11.025Z,2.47
2022-08-01T23:15:38.263Z,3.30
2022-08-01T23:18:06.100Z,3.78
2022-08-01T23:20:34.792Z,2.92
2022-08-01T23:23:03.331Z,3.13
2022-08-01T23:25:33.225Z,3.03
2022-08-01T23:28:05.301Z,3.05
2022-08-01T23:30:35.219Z,2.97
2022-08-01T23:33:02.771Z,2.90
2022-08-01T23:35:30.649Z,3.22
2022-08-01T23:38:02.393Z,2.90
2022-08-01T23:40:33.874Z,2.80
2022-08-01T23:43:02.150Z,2.80
2022-08-01T23:46:02.307Z,2.83
2022-08-01T23:48:16.150Z,2.95
2022-08-01T23:50:43.054Z,3.30
2022-08-01T23:53:09.773Z,2.90
2022-08-01T23:55:38.051Z,3.50
2022-08-01T23:58:06.460Z,3.20
